Time;durP1;ratioP1;P1;durP2;ratioP2;P2;SDS_P1;SDS_P2;PMS_P1;PMS_P2;Temp;Humidity;BMP_temperature;BMP_pressure;BME280_temperature;BME280_humidity;BME280_pressure;Samples;Min_cycle;Max_cycle;Signal;HPM_P1;HPM_P2
2022/09/19 00:00:34;;;;;;;11.38;2.15;;;;;;;8.41;100.00;101456.84;4988482;28;20510;-76
2022/09/19 00:03:00;;;;;;;10.23;1.95;;;;;;;8.35;100.00;101459.94;4985959;28;20038;-73
2022/09/19 00:05:25;;;;;;;13.57;1.88;;;;;;;8.36;100.00;101453.81;4986706;28;20026;-74
2022/09/19 00:07:51;;;;;;;11.80;2.92;;;;;;;8.36;100.00;101453.81;4964605;28;20039;-74
2022/09/19 00:10:16;;;;;;;15.95;2.55;;;;;;;8.38;100.00;101451.91;4967928;28;20026;-74
2022/09/19 00:12:41;;;;;;;18.90;2.08;;;;;;;8.39;100.00;101449.19;4966361;28;20027;-77
2022/09/19 00:15:07;;;;;;;12.18;1.98;;;;;;;8.49;100.00;101448.47;4986716;28;20042;-74
2022/09/19 00:17:33;;;;;;;19.50;3.20;;;;;;;8.49;100.00;101449.28;4988343;28;20042;-74
2022/09/19 00:19:58;;;;;;;14.32;2.78;;;;;;;8.43;100.00;101442.06;4982191;28;20035;-74
2022/09/19 00:22:24;;;;;;;10.98;1.92;;;;;;;8.45;100.00;101445.31;4986100;28;20045;-76
2022/09/19 00:24:49;;;;;;;13.18;2.15;;;;;;;8.46;100.00;101444.41;4973848;28;20038;-73
2022/09/19 00:27:21;;;;;;;13.52;3.08;;;;;;;8.38;100.00;101450.16;4985809;28;21061;-74
2022/09/19 00:29:48;;;;;;;10.15;1.95;;;;;;;8.38;100.00;101454.50;4986242;28;20503;-74
2022/09/19 00:32:14;;;;;;;16.33;2.00;;;;;;;8.32;100.00;101448.06;4986332;28;20026;-74
2022/09/19 00:34:47;;;;;;;7.25;2.03;;;;;;;8.33;100.00;101452.28;4984781;28;20077;-72
2022/09/19 00:37:14;;;;;;;9.75;1.48;;;;;;;8.25;100.00;101438.34;4985948;28;20026;-75
2022/09/19 00:39:40;;;;;;;19.42;1.88;;;;;;;8.31;100.00;101448.22;4999171;28;20033;-73
2022/09/19 00:42:17;;;;;;;13.18;1.73;;;;;;;8.33;100.00;101441.97;4988775;28;20026;-74
2022/09/19 00:44:43;;;;;;;15.05;1.88;;;;;;;8.33;100.00;101444.53;4995488;28;20045;-73
2022/09/19 00:47:18;;;;;;;12.30;1.52;;;;;;;8.30;100.00;101443.97;4986155;28;20129;-72
2022/09/19 00:49:48;;;;;;;9.73;1.58;;;;;;;8.32;100.00;101445.47;4987771;28;20034;-72
2022/09/19 00:52:21;;;;;;;11.25;1.77;;;;;;;8.24;100.00;101445.28;4989835;28;20695;-76
2022/09/19 00:54:49;;;;;;;11.73;1.83;;;;;;;8.22;100.00;101446.38;4988503;28;20084;-71
2022/09/19 00:57:17;;;;;;;13.18;1.98;;;;;;;8.24;100.00;101450.47;4970596;28;20483;-75
2022/09/19 00:59:47;;;;;;;24.63;2.30;;;;;;;8.20;100.00;101449.06;4970604;28;20500;-73
2022/09/19 01:02:14;;;;;;;10.45;1.80;;;;;;;8.24;100.00;101460.78;4974602;28;20046;-73
2022/09/19 01:04:43;;;;;;;8.80;1.52;;;;;;;8.19;100.00;101458.59;4988187;28;20034;-75
2022/09/19 01:07:22;;;;;;;13.57;2.00;;;;;;;8.18;100.00;101461.31;4986187;28;20070;-74
2022/09/19 01:10:03;;;;;;;17.73;3.55;;;;;;;8.15;100.00;101466.69;4986923;28;20035;-73
2022/09/19 01:12:51;;;;;;;8.88;1.48;;;;;;;8.14;100.00;101465.88;4972964;28;20049;-73
2022/09/19 01:15:38;;;;;;;15.27;1.70;;;;;;;8.16;100.00;101460.59;4969850;28;20719;-73
2022/09/19 01:18:06;;;;;;;11.75;1.73;;;;;;;8.11;100.00;101468.72;5001387;28;20041;-74
2022/09/19 01:24:19;;;;;;;9.07;1.70;;;;;;;8.03;100.00;101468.50;4986950;28;20034;-74
2022/09/19 01:26:48;;;;;;;10.40;1.50;;;;;;;8.02;100.00;101473.81;4983764;28;20038;-73
2022/09/19 01:29:21;;;;;;;11.20;1.52;;;;;;;7.99;100.00;101472.28;4986800;28;20030;-74
2022/09/19 01:31:52;;;;;;;11.10;1.80;;;;;;;7.99;100.00;101467.13;4967036;28;20041;-75
2022/09/19 01:34:24;;;;;;;7.75;1.75;;;;;;;7.95;100.00;101473.50;4986602;28;20488;-73
2022/09/19 01:37:00;;;;;;;10.48;1.85;;;;;;;8.07;100.00;101469.91;4984434;28;20757;-74
2022/09/19 01:39:29;;;;;;;13.63;1.67;;;;;;;7.96;100.00;101469.94;4983408;28;20026;-74
2022/09/19 01:41:59;;;;;;;15.55;1.90;;;;;;;7.93;100.00;101471.03;4987952;28;20172;-75
2022/09/19 01:44:26;;;;;;;10.55;1.80;;;;;;;7.89;100.00;101469.63;4973116;28;20037;-71
2022/09/19 01:47:31;;;;;;;13.38;1.85;;;;;;;7.89;100.00;101479.97;4965428;28;20058;-74
2022/09/19 01:50:15;;;;;;;12.85;2.03;;;;;;;7.88;100.00;101487.81;4967300;28;20034;-74
2022/09/19 01:53:05;;;;;;;12.68;2.05;;;;;;;7.88;100.00;101486.06;4980949;28;20031;-74
2022/09/19 01:56:05;;;;;;;16.10;2.10;;;;;;;7.91;100.00;101490.13;4981973;28;20602;-73
2022/09/19 01:58:49;;;;;;;12.75;1.75;;;;;;;7.98;100.00;101483.56;4968537;28;20030;-74
2022/09/19 02:01:52;;;;;;;13.98;1.88;;;;;;;7.95;100.00;101486.41;4981882;28;20554;-74
2022/09/19 02:04:23;;;;;;;9.15;2.45;;;;;;;7.88;100.00;101495.56;4982847;28;20080;-74
2022/09/19 02:07:01;;;;;;;15.43;2.07;;;;;;;7.92;100.00;101500.34;4970719;28;20070;-73
2022/09/19 02:09:42;;;;;;;8.95;2.13;;;;;;;8.05;100.00;101489.88;4970995;28;20721;-76
2022/09/19 02:12:12;;;;;;;9.75;1.92;;;;;;;7.99;100.00;101493.75;4982428;28;20097;-73
2022/09/19 02:14:41;;;;;;;10.07;1.60;;;;;;;7.99;100.00;101491.19;4999019;28;20030;-73
2022/09/19 02:17:13;;;;;;;11.63;2.05;;;;;;;7.90;100.00;101496.25;4983927;28;20030;-74
2022/09/19 02:19:53;;;;;;;9.50;2.33;;;;;;;7.94;100.00;101501.06;4964685;28;20072;-74
2022/09/19 02:22:32;;;;;;;17.65;2.10;;;;;;;7.94;100.00;101503.63;4980909;28;20050;-74
2022/09/19 02:25:03;;;;;;;18.83;2.03;;;;;;;7.99;100.00;101493.75;4984136;28;20031;-74
2022/09/19 02:27:37;;;;;;;11.07;2.38;;;;;;;8.02;100.00;101497.03;4985645;28;20030;-75
2022/09/19 02:30:08;;;;;;;16.60;2.15;;;;;;;7.93;100.00;101502.00;5000554;28;20049;-74
2022/09/19 02:32:46;;;;;;;15.50;2.10;;;;;;;7.96;100.00;101509.50;4968583;28;20080;-72
2022/09/19 02:35:14;;;;;;;20.65;2.22;;;;;;;7.99;100.00;101508.44;4986117;28;20129;-74
2022/09/19 02:37:46;;;;;;;16.00;3.25;;;;;;;7.95;100.00;101514.81;4969814;28;20484;-75
2022/09/19 02:40:29;;;;;;;16.63;2.00;;;;;;;8.06;100.00;101506.19;4987733;28;20042;-75
2022/09/19 02:43:06;;;;;;;16.20;2.28;;;;;;;8.07;100.00;101500.91;4983850;28;20478;-74
2022/09/19 02:45:39;;;;;;;11.82;2.20;;;;;;;8.01;100.00;101501.41;4969864;28;20042;-73
2022/09/19 02:48:28;;;;;;;22.60;1.95;;;;;;;8.05;100.00;101496.81;4967329;28;20057;-74
2022/09/19 02:51:30;;;;;;;12.25;2.22;;;;;;;7.98;100.00;101499.03;4983404;28;20042;-74
2022/09/19 02:54:14;;;;;;;9.75;1.58;;;;;;;7.97;100.00;101508.56;4964097;28;20042;-74
2022/09/19 02:56:41;;;;;;;11.52;2.13;;;;;;;7.87;100.00;101502.47;5000456;28;20087;-73
2022/09/19 02:59:20;;;;;;;12.70;1.80;;;;;;;7.94;100.00;101506.22;4967242;28;20043;-73
2022/09/19 03:01:58;;;;;;;20.58;3.13;;;;;;;7.89;100.00;101507.53;4982781;28;20042;-74
2022/09/19 03:04:29;;;;;;;;;;;;;;;7.94;100.00;101516.53;4981970;28;20122;-73
2022/09/19 03:07:13;;;;;;;12.82;1.98;;;;;;;7.89;100.00;101515.28;4966765;28;19925;-73
2022/09/19 03:09:56;;;;;;;14.88;1.92;;;;;;;7.87;100.00;101522.31;4981020;28;20034;-73
2022/09/19 03:12:50;;;;;;;9.10;1.75;;;;;;;7.91;100.00;101521.13;4984905;28;20045;-74
2022/09/19 03:15:21;;;;;;;15.20;2.75;;;;;;;7.89;100.00;101520.44;4966747;28;20054;-75
2022/09/19 03:17:49;;;;;;;19.20;1.95;;;;;;;7.87;100.00;101517.97;4980497;28;20073;-73
2022/09/19 03:20:18;;;;;;;12.27;1.90;;;;;;;7.89;100.00;101526.44;4981736;28;20034;-74
2022/09/19 03:22:47;;;;;;;15.10;1.92;;;;;;;7.82;100.00;101522.69;4970305;28;20471;-74
2022/09/19 03:25:14;;;;;;;11.43;1.70;;;;;;;7.87;100.00;101523.13;4980742;28;20093;-76
2022/09/19 03:27:40;;;;;;;13.65;1.90;;;;;;;7.78;100.00;101524.69;4963144;28;20040;-71
2022/09/19 03:30:08;;;;;;;16.48;3.00;;;;;;;7.80;100.00;101524.56;4975914;28;20539;-74
2022/09/19 03:32:35;;;;;;;11.70;1.83;;;;;;;7.71;100.00;101525.28;4980891;28;20042;-74
2022/09/19 03:35:04;;;;;;;14.55;2.17;;;;;;;7.61;100.00;101527.78;4981170;28;20038;-73
2022/09/19 03:37:32;;;;;;;16.95;1.80;;;;;;;7.77;100.00;101529.97;4980527;28;20553;-74
2022/09/19 03:39:58;;;;;;;14.85;2.88;;;;;;;7.67;100.00;101536.81;4980582;28;20031;-74
2022/09/19 03:42:25;;;;;;;20.77;2.08;;;;;;;7.73;100.00;101529.38;4966804;28;21671;-73
2022/09/19 03:44:52;;;;;;;13.75;2.30;;;;;;;7.65;100.00;101533.50;4983795;28;20127;-74
2022/09/19 03:47:21;;;;;;;8.75;2.17;;;;;;;7.78;100.00;101531.63;4962812;28;20051;-72
2022/09/19 03:49:50;;;;;;;15.02;1.60;;;;;;;7.75;100.00;101537.00;4967823;28;20041;-73
2022/09/19 03:52:19;;;;;;;19.42;2.95;;;;;;;7.75;100.00;101542.19;4967524;28;20034;-74
2022/09/19 03:54:45;;;;;;;13.43;1.40;;;;;;;7.68;100.00;101539.25;4979319;28;20085;-74
2022/09/19 03:57:12;;;;;;;8.90;1.67;;;;;;;7.70;100.00;101531.38;4980701;28;21682;-74
2022/09/19 03:59:41;;;;;;;10.10;1.75;;;;;;;7.76;100.00;101539.47;4983021;28;20126;-75
2022/09/19 04:02:09;;;;;;;11.18;1.90;;;;;;;7.79;100.00;101541.00;4967657;28;20395;-73
2022/09/19 04:04:35;;;;;;;19.63;2.45;;;;;;;7.80;100.00;101540.06;4998279;28;20119;-74
2022/09/19 04:07:04;;;;;;;10.70;1.63;;;;;;;7.81;100.00;101539.13;4982498;28;20470;-74
2022/09/19 04:09:31;;;;;;;13.38;2.60;;;;;;;7.78;100.00;101535.03;4983420;28;20042;-75
2022/09/19 04:12:02;;;;;;;17.80;2.00;;;;;;;7.79;100.00;101539.22;4959790;28;20049;-72
2022/09/19 04:14:29;;;;;;;8.70;1.48;;;;;;;7.79;100.00;101548.75;4985083;28;20045;-74
2022/09/19 04:16:57;;;;;;;10.05;1.92;;;;;;;7.77;100.00;101548.84;4979718;28;20166;-74
2022/09/19 04:19:26;;;;;;;14.90;2.13;;;;;;;7.75;100.00;101549.94;4980190;28;20157;-74
2022/09/19 04:22:21;;;;;;;15.57;2.60;;;;;;;7.66;100.00;101550.63;4983003;28;20113;-75
2022/09/19 04:25:10;;;;;;;20.95;3.35;;;;;;;7.74;100.00;101548.28;4979527;28;20510;-73
2022/09/19 04:28:04;;;;;;;20.90;4.38;;;;;;;7.72;100.00;101552.72;4983832;28;20038;-74
2022/09/19 04:30:36;;;;;;;15.75;2.40;;;;;;;7.70;100.00;101555.44;4982859;28;20685;-75
2022/09/19 04:33:05;;;;;;;14.93;2.17;;;;;;;7.69;100.00;101555.56;4983959;28;20065;-75
2022/09/19 04:35:35;;;;;;;14.48;2.25;;;;;;;7.60;100.00;101552.75;4986000;28;20080;-74
2022/09/19 04:38:03;;;;;;;12.88;2.28;;;;;;;7.57;100.00;101565.91;4970194;28;20053;-75
2022/09/19 04:40:28;;;;;;;14.00;2.15;;;;;;;7.62;100.00;101556.97;4974531;28;20109;-74
2022/09/19 04:42:54;;;;;;;23.23;3.85;;;;;;;7.53;100.00;101563.66;4972147;28;20539;-72
2022/09/19 04:45:20;;;;;;;12.27;1.95;;;;;;;7.55;100.00;101572.09;4985684;28;20072;-71
2022/09/19 04:48:09;;;;;;;11.57;3.28;;;;;;;7.53;100.00;101573.97;4978192;28;20756;-74
2022/09/19 04:50:35;;;;;;;10.77;1.75;;;;;;;7.46;100.00;101570.22;4973690;28;20035;-73
2022/09/19 04:53:02;;;;;;;13.93;2.15;;;;;;;7.54;100.00;101567.91;4987454;28;20493;-74
2022/09/19 04:55:28;;;;;;;12.07;2.05;;;;;;;7.64;100.00;101570.59;4971240;28;20045;-73
2022/09/19 04:57:55;;;;;;;19.55;2.83;;;;;;;7.51;100.00;101576.66;4988396;28;20185;-73
2022/09/19 05:00:38;;;;;;;17.50;2.20;;;;;;;7.54;100.00;101575.63;4984564;28;20092;-73
2022/09/19 05:03:13;;;;;;;19.33;3.70;;;;;;;7.63;100.00;101574.09;4979486;28;20037;-75
2022/09/19 05:05:44;;;;;;;19.13;1.90;;;;;;;7.59;100.00;101573.50;5003034;28;20061;-74
2022/09/19 05:08:15;;;;;;;8.20;1.70;;;;;;;7.56;100.00;101577.16;4982981;28;20062;-74
2022/09/19 05:10:45;;;;;;;14.27;3.63;;;;;;;7.54;100.00;101570.47;4981575;28;20023;-74
2022/09/19 05:13:11;;;;;;;18.17;2.20;;;;;;;7.62;100.00;101578.44;4980933;28;20407;-74
2022/09/19 05:15:40;;;;;;;15.32;2.45;;;;;;;7.58;100.00;101588.19;4997568;28;20026;-74
2022/09/19 05:18:05;;;;;;;15.23;3.72;;;;;;;7.67;100.00;101589.25;4983381;28;20108;-74
2022/09/19 05:20:31;;;;;;;10.48;1.90;;;;;;;7.64;100.00;101596.41;4969366;28;20480;-74
2022/09/19 05:22:58;;;;;;;13.60;2.40;;;;;;;7.72;100.00;101594.88;4985007;28;20042;-73
2022/09/19 05:25:29;;;;;;;20.73;2.20;;;;;;;7.80;100.00;101597.69;4986398;28;20101;-74
2022/09/19 05:27:59;;;;;;;15.57;2.00;;;;;;;7.72;100.00;101587.13;4983562;28;20034;-75
2022/09/19 05:30:26;;;;;;;16.77;2.08;;;;;;;7.74;100.00;101597.31;4968573;28;20543;-74
2022/09/19 05:32:54;;;;;;;12.75;1.70;;;;;;;7.84;100.00;101602.63;4970660;28;20037;-73
2022/09/19 05:35:31;;;;;;;17.85;2.28;;;;;;;7.84;100.00;101600.84;4980946;28;20068;-72
2022/09/19 05:38:14;;;;;;;13.13;1.88;;;;;;;7.98;100.00;101605.75;4978734;28;20534;-74
2022/09/19 05:41:11;;;;;;;17.00;1.70;;;;;;;8.01;100.00;101602.13;4977243;28;20035;-72
2022/09/19 05:43:44;;;;;;;12.50;2.20;;;;;;;7.92;100.00;101595.91;4985050;28;20030;-71
2022/09/19 05:46:11;;;;;;;17.52;1.70;;;;;;;7.97;100.00;101598.16;4968433;28;20037;-73
2022/09/19 05:48:39;;;;;;;14.15;1.65;;;;;;;8.09;100.00;101601.53;4985027;28;20041;-75
2022/09/19 05:51:06;;;;;;;17.02;2.97;;;;;;;8.08;100.00;101602.47;4969886;28;20042;-73
2022/09/19 05:54:05;;;;;;;13.48;1.55;;;;;;;8.29;100.00;101613.72;4982672;28;20046;-73
2022/09/19 05:56:49;;;;;;;12.32;1.88;;;;;;;8.20;100.00;101617.00;4985589;28;20037;-72
2022/09/19 05:59:15;;;;;;;9.35;2.03;;;;;;;8.24;100.00;101615.00;4984188;28;20066;-73
2022/09/19 06:01:43;;;;;;;13.60;1.60;;;;;;;8.32;100.00;101616.03;4966657;28;20026;-74
2022/09/19 06:04:20;;;;;;;11.50;2.22;;;;;;;8.35;100.00;101609.81;4980802;28;20031;-74
2022/09/19 06:06:46;;;;;;;20.42;2.20;;;;;;;8.36;100.00;101616.59;4984662;28;20081;-74
2022/09/19 06:09:11;;;;;;;13.05;2.10;;;;;;;8.36;100.00;101621.78;4984807;28;20487;-71
2022/09/19 06:11:40;;;;;;;17.63;2.20;;;;;;;8.46;100.00;101624.50;4979063;28;20027;-74
2022/09/19 06:14:17;;;;;;;15.65;1.70;;;;;;;8.45;100.00;101628.84;4997655;28;20094;-73
2022/09/19 06:16:45;;;;;;;13.77;2.15;;;;;;;8.48;100.00;101643.31;4985064;28;20041;-74
2022/09/19 06:19:34;;;;;;;12.77;2.17;;;;;;;8.64;100.00;101638.53;4985154;28;20169;-73
2022/09/19 06:22:05;;;;;;;17.48;2.22;;;;;;;8.72;100.00;101646.50;4984018;28;20061;-73
2022/09/19 06:24:31;;;;;;;20.42;2.40;;;;;;;8.89;100.00;101641.72;4980265;28;20531;-73
2022/09/19 06:26:57;;;;;;;11.30;2.25;;;;;;;8.98;100.00;101640.16;4969056;28;20062;-75
2022/09/19 06:29:25;;;;;;;12.18;2.00;;;;;;;9.15;100.00;101640.44;4983021;28;20038;-73
2022/09/19 06:32:09;;;;;;;17.60;2.45;;;;;;;9.24;100.00;101649.19;4980478;28;20459;-76
2022/09/19 06:34:40;;;;;;;18.58;2.30;;;;;;;9.29;100.00;101654.00;4983057;28;20026;-75
2022/09/19 06:37:05;;;;;;;11.48;2.10;;;;;;;9.23;100.00;101651.91;4967364;28;20031;-75
2022/09/19 06:39:32;;;;;;;31.42;2.70;;;;;;;9.27;100.00;101661.09;4983359;28;20160;-75
2022/09/19 06:42:14;;;;;;;17.95;1.83;;;;;;;9.23;100.00;101660.50;4981619;28;20346;-75
2022/09/19 06:44:50;;;;;;;25.25;2.17;;;;;;;9.23;100.00;101657.09;4985124;28;20037;-74
2022/09/19 06:47:42;;;;;;;12.90;2.22;;;;;;;9.27;100.00;101667.06;4982428;28;20041;-75
2022/09/19 06:50:27;;;;;;;23.10;4.07;;;;;;;9.37;100.00;101674.91;4980651;28;20049;-75
2022/09/19 06:52:57;;;;;;;23.38;5.22;;;;;;;9.43;100.00;101670.97;4980129;28;20560;-73
2022/09/19 06:55:27;;;;;;;19.00;2.38;;;;;;;9.49;100.00;101678.22;4982378;28;20042;-75
2022/09/19 06:57:58;;;;;;;;;;;;;;;9.54;100.00;101673.50;4979701;28;20046;-75
2022/09/19 07:00:26;;;;;;;12.43;1.63;;;;;;;9.66;100.00;101675.06;4997750;28;20844;-74
2022/09/19 07:02:58;;;;;;;10.73;2.03;;;;;;;9.67;100.00;101673.31;4963194;28;21916;-74
2022/09/19 07:05:24;;;;;;;14.95;2.10;;;;;;;9.89;100.00;101677.50;4983820;28;20034;-74
2022/09/19 07:08:06;;;;;;;14.05;1.90;;;;;;;10.02;100.00;101682.44;4967689;28;20112;-73
2022/09/19 07:10:33;;;;;;;8.35;2.13;;;;;;;10.11;100.00;101679.06;4984544;28;20168;-75
2022/09/19 07:13:01;;;;;;;11.32;2.47;;;;;;;10.10;100.00;101680.84;4982773;28;20042;-74
2022/09/19 07:15:28;;;;;;;13.43;2.00;;;;;;;10.07;100.00;101683.69;4984160;28;20558;-75
2022/09/19 07:17:55;;;;;;;9.30;1.90;;;;;;;10.16;100.00;101681.28;4999716;28;20031;-74
2022/09/19 07:20:25;;;;;;;17.92;2.58;;;;;;;10.17;100.00;101691.50;4983868;28;20104;-73
2022/09/19 07:23:05;;;;;;;12.23;1.80;;;;;;;10.13;100.00;101682.34;4982392;28;20094;-74
2022/09/19 07:25:48;;;;;;;13.63;2.80;;;;;;;10.13;100.00;101690.13;4981770;28;20054;-75
2022/09/19 07:28:16;;;;;;;10.15;2.03;;;;;;;10.11;100.00;101685.09;4983363;28;20472;-74
2022/09/19 07:30:45;;;;;;;11.23;1.58;;;;;;;10.14;100.00;101690.00;4966165;28;20093;-75
2022/09/19 07:33:12;;;;;;;8.80;1.80;;;;;;;10.18;100.00;101690.53;4999900;28;20039;-73
2022/09/19 07:35:41;;;;;;;16.90;1.77;;;;;;;10.35;100.00;101690.91;4985310;28;20987;-76
2022/09/19 07:38:11;;;;;;;14.70;2.45;;;;;;;10.30;100.00;101693.84;4985426;28;20037;-74
2022/09/19 07:41:02;;;;;;;18.38;1.65;;;;;;;10.43;100.00;101701.44;4970114;28;20088;-73
2022/09/19 07:43:59;;;;;;;24.17;2.28;;;;;;;10.40;100.00;101699.13;4972229;28;20051;-73
2022/09/19 07:46:37;;;;;;;27.27;4.32;;;;;;;10.46;100.00;101704.56;4978922;28;20301;-75
2022/09/19 07:49:25;;;;;;;12.18;2.10;;;;;;;10.57;100.00;101714.03;4972206;28;20034;-74
2022/09/19 07:52:11;;;;;;;17.13;3.30;;;;;;;10.68;100.00;101713.91;4982350;28;20105;-75
2022/09/19 07:54:37;;;;;;;12.65;2.00;;;;;;;10.66;100.00;101717.56;4984241;28;20038;-75
2022/09/19 07:57:02;;;;;;;18.88;2.42;;;;;;;10.87;100.00;101714.88;4983781;28;20037;-75
2022/09/19 07:59:28;;;;;;;16.25;2.55;;;;;;;10.89;100.00;101715.56;4967235;28;20038;-75
2022/09/19 08:01:57;;;;;;;12.73;1.67;;;;;;;10.94;100.00;101722.94;4980694;28;20030;-76
2022/09/19 08:04:34;;;;;;;19.20;2.00;;;;;;;11.00;100.00;101720.63;4986506;28;20166;-75
2022/09/19 08:07:00;;;;;;;14.73;1.77;;;;;;;11.14;100.00;101726.38;4973265;28;20126;-76
2022/09/19 08:09:26;;;;;;;19.80;1.80;;;;;;;11.19;100.00;101727.59;4968651;28;20038;-75
2022/09/19 08:12:17;;;;;;;10.70;1.60;;;;;;;11.41;100.00;101726.47;4983836;28;20675;-75
2022/09/19 08:14:48;;;;;;;18.00;2.65;;;;;;;11.47;99.83;101718.13;4987828;28;20066;-74
2022/09/19 08:17:15;;;;;;;15.02;2.13;;;;;;;11.73;100.00;101724.50;4970704;28;20038;-75
2022/09/19 08:19:43;;;;;;;13.43;1.77;;;;;;;12.19;97.13;101728.06;4982035;28;20091;-76
2022/09/19 08:22:09;;;;;;;16.55;1.73;;;;;;;12.51;95.09;101732.81;4985624;28;20030;-76
2022/09/19 08:24:40;;;;;;;20.35;2.22;;;;;;;12.61;94.66;101730.16;4971135;28;20333;-74
2022/09/19 08:27:14;;;;;;;9.82;1.50;;;;;;;13.02;92.41;101731.38;4985946;28;20110;-76
2022/09/19 08:29:41;;;;;;;10.77;1.48;;;;;;;13.23;89.97;101732.84;4984609;28;20038;-76
2022/09/19 08:32:10;;;;;;;11.80;2.00;;;;;;;13.17;88.75;101734.28;4984194;28;20029;-76
2022/09/19 08:34:36;;;;;;;13.13;2.00;;;;;;;13.20;89.40;101741.78;4974798;28;20034;-77
2022/09/19 08:37:02;;;;;;;14.27;1.92;;;;;;;13.29;88.94;101744.44;4968759;28;20045;-76
2022/09/19 08:39:31;;;;;;;16.10;2.05;;;;;;;13.58;86.67;101747.63;4987861;28;20149;-77
2022/09/19 08:42:19;;;;;;;10.25;1.65;;;;;;;13.67;87.14;101745.06;4969376;28;20085;-76
2022/09/19 08:44:59;;;;;;;10.90;3.78;;;;;;;13.67;85.15;101750.28;4983514;28;20030;-76
2022/09/19 08:47:30;;;;;;;10.27;1.55;;;;;;;14.44;83.82;101752.94;4972600;28;20238;-76
2022/09/19 08:50:20;;;;;;;11.25;1.75;;;;;;;14.97;79.73;101757.84;4971455;28;20026;-76
2022/09/19 08:52:52;;;;;;;10.00;2.42;;;;;;;14.62;79.88;101751.06;4982082;28;20137;-75
2022/09/19 08:55:24;;;;;;;18.67;3.38;;;;;;;15.33;77.94;101749.69;5003479;28;20096;-76
2022/09/19 08:58:00;;;;;;;12.18;1.70;;;;;;;15.67;76.81;101761.72;4987726;28;20042;-77
2022/09/19 09:00:42;;;;;;;10.93;1.63;;;;;;;16.19;75.25;101746.56;4969376;28;20030;-77
2022/09/19 09:03:14;;;;;;;16.08;2.65;;;;;;;15.82;77.21;101756.63;4988049;28;20422;-76
2022/09/19 09:06:08;;;;;;;10.20;2.20;;;;;;;15.40;77.09;101751.63;4968120;28;20064;-77
2022/09/19 09:08:53;;;;;;;9.52;1.15;;;;;;;14.90;78.84;101759.44;4971602;28;20518;-76
2022/09/19 09:11:58;;;;;;;9.65;1.55;;;;;;;15.10;80.14;101751.31;4983233;28;20077;-77
2022/09/19 09:14:46;;;;;;;10.02;1.23;;;;;;;15.25;78.27;101754.88;4966575;28;20105;-75
2022/09/19 09:17:52;;;;;;;13.38;2.47;;;;;;;15.50;77.94;101754.88;4966383;28;20057;-76
2022/09/19 09:20:24;;;;;;;9.43;1.40;;;;;;;15.58;77.05;101758.31;5004612;28;20041;-77
2022/09/19 09:23:21;;;;;;;16.70;1.60;;;;;;;15.49;76.24;101746.22;4984825;28;20157;-74
2022/09/19 09:26:19;;;;;;;10.93;1.38;;;;;;;15.57;77.04;101755.84;4973850;28;20041;-76
2022/09/19 09:29:00;;;;;;;11.65;1.60;;;;;;;15.95;76.87;101743.88;4984725;28;20031;-76
2022/09/19 09:31:38;;;;;;;14.27;1.58;;;;;;;16.33;74.90;101745.84;4983157;28;20687;-76
2022/09/19 09:34:47;;;;;;;14.68;1.60;;;;;;;15.99;75.48;101744.34;4979966;28;20403;-75
2022/09/19 09:37:24;;;;;;;11.75;1.50;;;;;;;15.71;76.84;101751.75;4970373;28;20649;-76
2022/09/19 09:40:12;;;;;;;13.90;1.65;;;;;;;15.41;77.50;101754.09;4987059;28;20499;-76
2022/09/19 09:42:59;;;;;;;13.07;1.98;;;;;;;15.31;77.68;101756.03;4976443;28;20030;-76
2022/09/19 09:45:44;;;;;;;13.05;1.55;;;;;;;15.40;77.78;101760.28;4983774;28;20049;-76
2022/09/19 09:48:37;;;;;;;9.18;1.42;;;;;;;15.35;78.03;101752.94;4971722;28;20038;-77
2022/09/19 09:51:10;;;;;;;18.05;1.55;;;;;;;15.58;79.03;101749.66;4970479;28;20030;-77
2022/09/19 09:53:49;;;;;;;17.58;1.52;;;;;;;15.48;77.61;101756.84;4981824;28;20042;-77
2022/09/19 09:56:26;;;;;;;10.65;1.25;;;;;;;15.53;75.49;101747.53;4983276;28;20030;-77
2022/09/19 09:58:57;;;;;;;11.88;1.30;;;;;;;15.75;76.17;101745.25;4967262;28;20035;-75
2022/09/19 10:04:40;;;;;;;13.13;1.42;;;;;;;15.57;74.78;101742.78;4978190;28;20042;-78
2022/09/19 10:07:42;;;;;;;9.10;1.25;;;;;;;15.27;76.79;101745.09;4979633;28;20626;-78
2022/09/19 10:10:19;;;;;;;12.65;3.13;;;;;;;15.17;78.72;101749.69;4969150;28;21364;-77
2022/09/19 10:12:58;;;;;;;11.57;2.30;;;;;;;14.94;79.00;101752.94;4985353;28;20029;-76
2022/09/19 10:15:25;;;;;;;12.68;1.73;;;;;;;15.02;79.69;101752.13;4984134;28;20073;-76
2022/09/19 10:18:05;;;;;;;7.20;1.27;;;;;;;15.57;76.79;101748.81;4975612;28;20046;-74
2022/09/19 10:20:36;;;;;;;13.35;1.67;;;;;;;15.98;75.01;101744.53;4980230;28;20030;-77
2022/09/19 10:23:02;;;;;;;16.13;1.50;;;;;;;16.12;73.43;101743.81;4971195;28;20430;-77
2022/09/19 10:25:30;;;;;;;9.13;1.17;;;;;;;16.02;73.49;101744.00;4985669;28;20738;-76
2022/09/19 10:28:14;;;;;;;12.48;1.25;;;;;;;15.69;73.82;101751.09;4983877;28;20034;-76
2022/09/19 10:31:19;;;;;;;8.05;1.05;;;;;;;15.41;75.62;101753.25;4982808;28;20455;-76
2022/09/19 10:33:47;;;;;;;8.35;1.10;;;;;;;15.04;77.87;101742.31;4968249;28;20042;-78
2022/09/19 10:36:26;;;;;;;8.68;1.10;;;;;;;15.10;77.67;101746.06;4984207;28;20022;-75
2022/09/19 10:38:58;;;;;;;8.85;1.20;;;;;;;15.17;77.37;101745.25;4969748;28;20122;-76
2022/09/19 10:41:33;;;;;;;10.75;1.92;;;;;;;15.14;77.46;101739.53;4968067;28;20417;-78
2022/09/19 10:44:01;;;;;;;17.20;1.20;;;;;;;15.32;76.81;101742.00;4984802;28;20460;-78
2022/09/19 10:46:36;;;;;;;11.25;1.40;;;;;;;15.81;76.00;101733.28;4962898;28;20117;-77
2022/09/19 10:49:28;;;;;;;3.97;1.05;;;;;;;16.09;73.06;101737.13;4979320;28;20034;-77
2022/09/19 10:51:59;;;;;;;7.95;1.05;;;;;;;16.59;70.85;101723.78;4980276;28;20395;-75
2022/09/19 10:54:36;;;;;;;8.25;1.00;;;;;;;16.65;65.85;101729.16;4983845;28;20049;-77
2022/09/19 10:57:23;;;;;;;5.82;0.80;;;;;;;16.68;66.45;101730.59;4984024;28;20069;-75
2022/09/19 10:59:50;;;;;;;5.00;1.02;;;;;;;16.50;66.93;101728.25;5000704;28;20042;-77
2022/09/19 11:02:27;;;;;;;7.93;1.20;;;;;;;16.35;66.98;101731.59;4965257;28;20439;-79
2022/09/19 11:05:02;;;;;;;10.00;1.10;;;;;;;16.42;66.76;101736.16;4969004;28;20038;-75
2022/09/19 11:07:48;;;;;;;7.95;0.73;;;;;;;16.76;66.69;101735.78;4966127;28;20038;-77
2022/09/19 11:10:50;;;;;;;;;;;;;;;16.67;66.74;101737.66;4999043;28;20046;-77
2022/09/19 11:13:28;;;;;;;7.57;0.90;;;;;;;16.94;66.51;101732.91;4933773;28;19941;-77
2022/09/19 11:16:25;;;;;;;7.68;1.00;;;;;;;17.19;67.45;101740.56;4962328;28;20602;-77
2022/09/19 11:19:30;;;;;;;9.75;0.73;;;;;;;17.03;67.14;101726.63;4967107;28;20034;-77
2022/09/19 11:22:18;;;;;;;7.57;0.88;;;;;;;17.06;64.72;101723.63;4959870;28;20056;-76
2022/09/19 11:25:32;;;;;;;5.80;0.77;;;;;;;16.87;63.92;101722.31;4987837;28;20098;-78
2022/09/19 11:28:33;;;;;;;13.90;1.50;;;;;;;16.60;64.82;101731.47;4951845;28;20385;-77
2022/09/19 11:31:27;;;;;;;13.85;2.55;;;;;;;17.01;65.87;101727.75;4982375;28;20122;-78
2022/09/19 11:34:11;;;;;;;10.02;2.00;;;;;;;16.82;66.49;101716.78;4967388;28;20423;-76
2022/09/19 11:37:25;;;;;;;5.68;1.05;;;;;;;16.96;65.76;101730.13;4972668;28;20089;-76
2022/09/19 11:40:09;;;;;;;8.48;1.70;;;;;;;16.96;64.33;101720.44;4974249;28;20407;-78
2022/09/19 11:42:57;;;;;;;10.45;2.22;;;;;;;17.14;61.92;101720.16;4990012;28;21042;-78
2022/09/19 11:45:36;;;;;;;9.43;1.05;;;;;;;17.03;61.88;101731.06;4975988;28;20044;-79
2022/09/19 11:48:35;;;;;;;6.18;1.05;;;;;;;16.87;61.16;101739.81;4974936;28;20125;-77
2022/09/19 11:51:09;;;;;;;8.02;0.77;;;;;;;16.59;64.22;101786.63;4972646;28;20053;-74
2022/09/19 11:53:43;;;;;;;5.88;0.60;;;;;;;15.75;68.48;101787.06;4987051;28;20387;-77
2022/09/19 11:56:36;;;;;;;5.93;0.90;;;;;;;14.87;76.38;101795.50;4973847;28;20027;-78
2022/09/19 11:59:40;;;;;;;10.23;0.90;;;;;;;14.18;80.71;101801.59;4985375;28;20058;-79
2022/09/19 12:02:46;;;;;;;4.45;1.23;;;;;;;13.86;83.70;101801.41;4990511;28;20123;-76
2022/09/19 12:05:28;;;;;;;6.18;1.10;;;;;;;13.73;86.11;101807.84;4968371;28;20031;-79